createdAt,value
2019-02-08T00:00:04.349Z,10.20
2019-02-08T00:02:33.911Z,10.20
2019-02-08T00:05:01.427Z,10.20
2019-02-08T00:07:29.221Z,10.20
2019-02-08T00:09:57.245Z,10.20
2019-02-08T00:12:25.628Z,10.20
2019-02-08T00:14:53.118Z,10.10
2019-02-08T00:17:20.674Z,10.10
2019-02-08T00:19:48.305Z,10.10
2019-02-08T00:22:16.022Z,10.10
2019-02-08T00:24:43.639Z,10.10
2019-02-08T00:27:11.434Z,10.10
2019-02-08T00:29:39.201Z,10.10
2019-02-08T00:32:07.806Z,10.10
2019-02-08T00:34:35.975Z,10.10
2019-02-08T00:37:03.730Z,10.10
2019-02-08T00:39:31.699Z,10.00
2019-02-08T00:41:59.582Z,10.00
2019-02-08T00:44:27.486Z,10.00
2019-02-08T00:46:55.027Z,10.00
2019-02-08T00:49:23.067Z,10.00
2019-02-08T00:51:50.796Z,10.00
2019-02-08T00:54:19.020Z,10.00
2019-02-08T00:56:47.134Z,10.00
2019-02-08T00:59:33.581Z,10.00
2019-02-08T01:02:01.645Z,10.00
2019-02-08T01:04:29.721Z,10.00
2019-02-08T01:06:57.320Z,10.00
2019-02-08T01:09:27.311Z,10.00
2019-02-08T01:11:54.895Z,9.90
2019-02-08T01:14:22.545Z,10.00
2019-02-08T01:16:51.725Z,9.90
2019-02-08T01:19:19.477Z,9.90
2019-02-08T01:21:47.217Z,9.90
2019-02-08T01:24:14.737Z,9.90
2019-02-08T01:26:43.189Z,9.90
2019-02-08T01:29:10.970Z,9.90
2019-02-08T01:31:38.852Z,9.90
2019-02-08T01:34:07.194Z,9.90
2019-02-08T01:36:35.492Z,9.90
2019-02-08T01:39:06.182Z,9.90
2019-02-08T01:41:34.285Z,9.80
2019-02-08T01:44:02.013Z,9.90
2019-02-08T01:46:29.619Z,9.90
2019-02-08T01:48:57.175Z,9.80
2019-02-08T01:51:24.585Z,9.90
2019-02-08T01:53:52.254Z,9.90
2019-02-08T01:56:19.789Z,9.90
2019-02-08T01:58:48.653Z,9.90
2019-02-08T02:01:16.730Z,9.90
2019-02-08T02:03:44.143Z,9.90
2019-02-08T02:06:12.016Z,9.90
2019-02-08T02:08:39.516Z,9.90
2019-02-08T02:11:07.021Z,9.90
2019-02-08T02:13:34.747Z,9.80
2019-02-08T02:16:04.129Z,9.90
2019-02-08T02:18:31.815Z,9.90
2019-02-08T02:20:59.419Z,9.80
2019-02-08T02:23:26.841Z,9.90
2019-02-08T02:25:54.436Z,9.80
2019-02-08T02:28:22.200Z,9.80
2019-02-08T02:30:49.773Z,9.80
2019-02-08T02:33:17.699Z,9.80
2019-02-08T02:35:45.615Z,9.80
2019-02-08T02:38:13.150Z,9.80
2019-02-08T02:40:40.953Z,9.80
2019-02-08T02:43:08.981Z,9.80
2019-02-08T02:45:37.650Z,9.80
2019-02-08T02:48:07.217Z,9.80
2019-02-08T02:50:35.224Z,9.80
2019-02-08T02:53:03.017Z,9.80
2019-02-08T02:55:31.175Z,9.80
2019-02-08T02:57:58.603Z,9.80
2019-02-08T03:00:32.255Z,9.80
2019-02-08T03:02:59.825Z,10.00
2019-02-08T03:05:27.687Z,10.00
2019-02-08T03:07:55.131Z,9.80
2019-02-08T03:10:22.739Z,9.80
2019-02-08T03:12:50.361Z,9.80
2019-02-08T03:15:18.805Z,9.80
2019-02-08T03:17:46.824Z,9.80
2019-02-08T03:20:15.884Z,9.80
2019-02-08T03:22:43.572Z,9.80
2019-02-08T03:25:13.588Z,9.80
2019-02-08T03:27:41.173Z,9.80
2019-02-08T03:30:11.766Z,10.10
2019-02-08T03:32:39.432Z,9.80
2019-02-08T03:35:10.505Z,9.90
2019-02-08T03:37:38.027Z,9.90
2019-02-08T03:40:08.663Z,9.90
2019-02-08T03:42:36.695Z,9.90
2019-02-08T03:45:06.519Z,9.90
2019-02-08T03:47:34.132Z,9.90
2019-02-08T03:50:01.985Z,9.90
2019-02-08T03:52:29.527Z,9.90
2019-02-08T03:54:57.036Z,9.90
2019-02-08T03:57:24.497Z,9.90
2019-02-08T03:59:52.029Z,9.90
2019-02-08T04:02:20.307Z,9.90
2019-02-08T04:04:48.143Z,9.90
2019-02-08T04:07:16.738Z,9.90
2019-02-08T04:09:44.387Z,9.90
2019-02-08T04:12:12.419Z,9.90
2019-02-08T04:14:40.304Z,9.90
2019-02-08T04:17:08.204Z,9.90
2019-02-08T04:19:35.595Z,9.90
2019-02-08T04:22:03.625Z,9.60
2019-02-08T04:24:31.073Z,9.90
2019-02-08T04:26:58.915Z,10.00
2019-02-08T04:29:26.533Z,10.00
2019-02-08T04:31:54.062Z,9.90
2019-02-08T04:34:21.846Z,10.00
2019-02-08T04:36:49.377Z,10.00
2019-02-08T04:39:17.216Z,9.90
2019-02-08T04:41:45.433Z,10.00
2019-02-08T04:44:12.727Z,10.00
2019-02-08T04:46:40.707Z,10.00
2019-02-08T04:49:08.715Z,10.00
2019-02-08T04:51:37.261Z,10.00
2019-02-08T04:54:05.046Z,10.00
2019-02-08T04:56:32.651Z,10.00
2019-02-08T04:59:00.468Z,10.00
2019-02-08T05:01:27.965Z,10.00
2019-02-08T05:03:55.310Z,10.00
2019-02-08T05:06:22.711Z,10.00
2019-02-08T05:08:50.419Z,10.00
2019-02-08T05:11:18.585Z,10.00
2019-02-08T05:13:46.589Z,10.00
2019-02-08T05:16:14.192Z,10.00
2019-02-08T05:18:42.058Z,10.00
2019-02-08T05:21:10.445Z,10.00
2019-02-08T05:23:38.234Z,10.00
2019-02-08T05:26:06.805Z,10.00
2019-02-08T05:28:34.688Z,9.90
2019-02-08T05:31:02.206Z,10.00
2019-02-08T05:33:29.898Z,10.00
2019-02-08T05:35:58.320Z,10.00
2019-02-08T05:38:26.232Z,10.00
2019-02-08T05:40:54.023Z,9.90
2019-02-08T05:43:21.636Z,10.00
2019-02-08T05:45:50.538Z,10.00
2019-02-08T05:48:18.277Z,10.00
2019-02-08T05:50:46.240Z,10.00
2019-02-08T05:53:14.081Z,10.00
2019-02-08T05:55:41.712Z,10.00
2019-02-08T05:58:09.228Z,10.00
2019-02-08T06:00:52.524Z,10.00
2019-02-08T06:03:20.916Z,10.00
2019-02-08T06:05:48.953Z,9.60
2019-02-08T06:08:17.156Z,10.00
2019-02-08T06:10:44.866Z,10.00
2019-02-08T06:13:12.656Z,10.00
2019-02-08T06:15:40.839Z,10.00
2019-02-08T06:18:09.528Z,10.00
2019-02-08T06:20:40.326Z,10.10
2019-02-08T06:23:08.528Z,10.40
2019-02-08T06:25:36.414Z,10.10
2019-02-08T06:28:06.734Z,10.10
2019-02-08T06:30:37.926Z,10.10
2019-02-08T06:33:24.684Z,10.10
2019-02-08T06:35:52.961Z,10.10
2019-02-08T06:38:21.045Z,10.10
2019-02-08T06:40:49.849Z,10.10
2019-02-08T06:43:17.997Z,10.10
2019-02-08T06:45:46.299Z,10.10
2019-02-08T06:48:14.874Z,10.10
2019-02-08T06:50:43.110Z,10.10
2019-02-08T06:53:12.733Z,10.10
2019-02-08T06:55:40.303Z,10.10
2019-02-08T06:58:48.510Z,10.10
2019-02-08T07:01:45.779Z,10.10
2019-02-08T07:04:30.326Z,10.10
2019-02-08T07:07:17.951Z,10.10
2019-02-08T07:10:08.262Z,10.00
2019-02-08T07:12:50.142Z,10.10
2019-02-08T07:15:55.766Z,10.10
2019-02-08T07:18:43.010Z,10.10
2019-02-08T07:21:29.604Z,10.10
2019-02-08T07:24:05.095Z,10.10
2019-02-08T07:26:52.541Z,10.10
2019-02-08T07:29:42.739Z,10.10
2019-02-08T07:32:39.039Z,10.10
2019-02-08T07:35:21.391Z,10.10
2019-02-08T07:38:11.083Z,10.00
2019-02-08T07:41:01.542Z,10.10
2019-02-08T07:43:41.956Z,10.10
2019-02-08T07:46:31.627Z,10.10
2019-02-08T07:49:18.972Z,10.20
2019-02-08T07:52:09.657Z,10.20
2019-02-08T07:54:56.354Z,10.20
2019-02-08T07:57:37.385Z,10.20
2019-02-08T08:00:21.849Z,10.20
2019-02-08T08:03:02.983Z,10.20
2019-02-08T08:05:59.202Z,10.20
2019-02-08T08:08:46.830Z,10.30
2019-02-08T08:11:22.784Z,10.20
2019-02-08T08:14:15.815Z,10.20
2019-02-08T08:16:56.412Z,10.30
2019-02-08T08:19:53.674Z,10.20
2019-02-08T08:22:34.544Z,10.20
2019-02-08T08:25:34.141Z,10.30
2019-02-08T08:28:28.284Z,10.30
2019-02-08T08:31:05.594Z,10.20
2019-02-08T08:33:48.147Z,10.30
2019-02-08T08:36:49.310Z,10.30
2019-02-08T08:39:46.195Z,10.30
2019-02-08T08:42:55.663Z,10.30
2019-02-08T08:46:01.369Z,10.30
2019-02-08T08:48:53.550Z,10.30
2019-02-08T08:51:42.834Z,10.30
2019-02-08T08:54:44.554Z,10.30
2019-02-08T08:57:49.558Z,10.30
2019-02-08T09:00:43.905Z,10.40
2019-02-08T09:03:52.933Z,10.30
2019-02-08T09:07:16.353Z,10.30
2019-02-08T09:10:32.750Z,10.30
2019-02-08T09:13:45.941Z,10.40
2019-02-08T09:16:51.390Z,10.40
2019-02-08T09:19:59.840Z,10.40
2019-02-08T09:23:15.538Z,10.40
2019-02-08T09:26:22.261Z,10.40
2019-02-08T09:29:32.148Z,10.40
2019-02-08T09:32:38.906Z,10.40
2019-02-08T09:35:50.618Z,10.50
2019-02-08T09:39:14.330Z,10.50
2019-02-08T09:42:26.065Z,10.50
2019-02-08T09:45:43.413Z,10.50
2019-02-08T09:48:29.701Z,10.50
2019-02-08T09:51:37.910Z,10.50
2019-02-08T09:54:41.836Z,10.50
2019-02-08T09:57:58.716Z,10.50
2019-02-08T10:01:05.490Z,10.50
2019-02-08T10:04:06.359Z,10.60
2019-02-08T10:07:02.345Z,10.20
2019-02-08T10:09:58.375Z,10.60
2019-02-08T10:13:09.859Z,10.60
2019-02-08T10:16:38.041Z,10.60
2019-02-08T10:19:44.315Z,10.60
2019-02-08T10:22:53.414Z,10.60
2019-02-08T10:26:18.301Z,10.60
2019-02-08T10:29:21.678Z,10.70
2019-02-08T10:32:33.469Z,10.70
2019-02-08T10:35:37.810Z,10.70
2019-02-08T10:38:46.398Z,10.70
2019-02-08T10:41:55.355Z,10.70
2019-02-08T10:45:00.249Z,10.80
2019-02-08T10:48:11.770Z,10.80
2019-02-08T10:51:16.302Z,10.80
2019-02-08T10:54:17.487Z,10.80
2019-02-08T10:57:12.645Z,10.90
2019-02-08T11:00:21.734Z,10.80
2019-02-08T11:03:25.869Z,10.90
2019-02-08T11:06:37.859Z,10.90
2019-02-08T11:09:55.113Z,10.90
2019-02-08T11:13:16.971Z,11.00
2019-02-08T11:16:25.609Z,11.00
2019-02-08T11:19:14.919Z,11.00
2019-02-08T11:21:43.132Z,11.00
2019-02-08T11:24:13.064Z,11.00
2019-02-08T11:26:40.727Z,11.00
2019-02-08T11:29:08.860Z,11.10
2019-02-08T11:31:41.868Z,11.00
2019-02-08T11:34:09.806Z,11.00
2019-02-08T11:36:37.472Z,11.10
2019-02-08T11:39:10.626Z,11.30
2019-02-08T11:41:38.792Z,11.10
2019-02-08T11:44:07.604Z,11.10
2019-02-08T11:46:35.514Z,11.10
2019-02-08T11:49:04.137Z,11.10
2019-02-08T11:51:33.196Z,11.10
2019-02-08T11:54:01.282Z,11.10
2019-02-08T11:56:30.985Z,11.10
2019-02-08T11:58:58.629Z,11.20
2019-02-08T12:01:28.741Z,11.10
2019-02-08T12:03:56.684Z,11.10
2019-02-08T12:06:25.664Z,11.10
2019-02-08T12:08:53.427Z,11.10
2019-02-08T12:11:22.106Z,11.20
2019-02-08T12:13:50.467Z,11.20
2019-02-08T12:16:19.257Z,11.20
2019-02-08T12:18:47.596Z,11.20
2019-02-08T12:21:21.595Z,11.20
2019-02-08T12:23:49.564Z,11.20
2019-02-08T12:26:17.610Z,11.20
2019-02-08T12:28:46.147Z,11.20
2019-02-08T12:31:13.934Z,11.30
2019-02-08T12:33:41.598Z,11.30
2019-02-08T12:36:09.743Z,11.30
2019-02-08T12:38:39.292Z,11.30
2019-02-08T12:41:09.885Z,11.30
2019-02-08T12:43:37.335Z,11.30
2019-02-08T12:46:06.101Z,11.30
2019-02-08T12:48:34.505Z,11.30
2019-02-08T12:51:02.774Z,11.30
2019-02-08T12:53:31.679Z,11.30
2019-02-08T12:56:00.763Z,11.30
2019-02-08T12:58:29.548Z,11.30
2019-02-08T13:01:01.185Z,11.40
2019-02-08T13:03:29.107Z,11.40
2019-02-08T13:05:56.731Z,11.40
2019-02-08T13:08:24.335Z,11.40
2019-02-08T13:10:52.249Z,11.40
2019-02-08T13:13:20.954Z,11.40
2019-02-08T13:15:48.825Z,11.40
2019-02-08T13:18:16.423Z,11.40
2019-02-08T13:20:44.420Z,11.40
2019-02-08T13:23:12.484Z,11.40
2019-02-08T13:25:45.614Z,11.40
2019-02-08T13:28:13.482Z,11.40
2019-02-08T13:30:41.370Z,11.40
2019-02-08T13:33:09.421Z,11.40
2019-02-08T13:35:37.876Z,11.40
2019-02-08T13:38:05.529Z,11.40
2019-02-08T13:40:34.130Z,11.40
2019-02-08T13:43:01.570Z,11.40
2019-02-08T13:45:29.337Z,11.40
2019-02-08T13:47:57.431Z,11.40
2019-02-08T13:50:25.488Z,11.40
2019-02-08T13:52:54.341Z,11.40
2019-02-08T13:55:23.081Z,11.40
2019-02-08T13:57:51.475Z,11.40
2019-02-08T14:00:28.071Z,11.40
2019-02-08T14:02:56.617Z,11.40
2019-02-08T14:05:24.883Z,11.40
2019-02-08T14:07:53.021Z,11.50
2019-02-08T14:10:20.610Z,11.40
2019-02-08T14:12:48.152Z,11.50
2019-02-08T14:15:16.621Z,11.50
2019-02-08T14:17:44.145Z,11.50
2019-02-08T14:20:17.613Z,11.50
2019-02-08T14:22:45.228Z,11.50
2019-02-08T14:25:13.751Z,11.50
2019-02-08T14:27:41.500Z,11.50
2019-02-08T14:30:33.250Z,11.50
2019-02-08T14:33:00.963Z,11.50
2019-02-08T14:35:28.740Z,11.50
2019-02-08T14:37:59.072Z,11.50
2019-02-08T14:40:27.066Z,11.50
2019-02-08T14:42:55.340Z,11.50
2019-02-08T14:45:23.336Z,11.60
2019-02-08T14:47:51.787Z,11.50
2019-02-08T14:50:21.369Z,11.50
2019-02-08T14:52:49.501Z,11.60
2019-02-08T14:55:17.212Z,11.60
2019-02-08T14:57:45.017Z,11.60
2019-02-08T15:00:15.089Z,11.60
2019-02-08T15:02:42.826Z,11.60
2019-02-08T15:05:12.828Z,11.60
2019-02-08T15:07:41.019Z,11.60
2019-02-08T15:10:18.771Z,11.60
2019-02-08T15:12:46.635Z,11.60
2019-02-08T15:15:14.650Z,11.60
2019-02-08T15:17:42.462Z,11.60
2019-02-08T15:20:16.877Z,11.60
2019-02-08T15:22:45.584Z,11.60
2019-02-08T15:25:13.203Z,11.60
2019-02-08T15:27:41.265Z,11.50
2019-02-08T15:30:12.101Z,11.60
2019-02-08T15:32:39.763Z,11.60
2019-02-08T15:35:08.278Z,11.60
2019-02-08T15:37:35.845Z,11.50
2019-02-08T15:40:05.858Z,11.60
2019-02-08T15:42:34.257Z,11.60
2019-02-08T15:45:01.733Z,11.60
2019-02-08T15:47:29.974Z,11.60
2019-02-08T15:49:57.964Z,11.60
2019-02-08T15:52:27.138Z,11.60
2019-02-08T15:54:56.619Z,11.60
2019-02-08T15:57:31.736Z,11.60
2019-02-08T15:59:54.403Z,11.60
2019-02-08T16:02:22.015Z,11.60
2019-02-08T16:04:49.831Z,11.80
2019-02-08T16:07:17.309Z,11.60
2019-02-08T16:09:45.286Z,11.60
2019-02-08T16:12:13.042Z,11.60
2019-02-08T16:14:40.636Z,11.60
2019-02-08T16:17:08.689Z,11.60
2019-02-08T16:19:36.421Z,11.60
2019-02-08T16:22:05.332Z,11.60
2019-02-08T16:24:34.033Z,11.60
2019-02-08T16:27:02.183Z,11.60
2019-02-08T16:29:29.972Z,11.60
2019-02-08T16:31:57.633Z,11.60
2019-02-08T16:34:26.093Z,11.60
2019-02-08T16:36:54.077Z,11.80
2019-02-08T16:39:21.902Z,11.60
2019-02-08T16:41:49.797Z,11.60
2019-02-08T16:44:17.250Z,11.50
2019-02-08T16:46:45.953Z,11.60
2019-02-08T16:49:13.896Z,11.60
2019-02-08T16:51:42.493Z,11.60
2019-02-08T16:54:10.767Z,11.60
2019-02-08T16:56:38.739Z,11.50
2019-02-08T16:59:06.909Z,11.60
2019-02-08T17:01:34.320Z,11.60
2019-02-08T17:04:03.058Z,11.60
2019-02-08T17:06:30.873Z,11.60
2019-02-08T17:08:58.516Z,11.50
2019-02-08T17:11:26.242Z,11.50
2019-02-08T17:13:55.457Z,11.60
2019-02-08T17:16:24.131Z,11.50
2019-02-08T17:18:52.106Z,11.50
2019-02-08T17:21:20.916Z,11.60
2019-02-08T17:23:49.864Z,11.60
2019-02-08T17:26:17.709Z,11.50
2019-02-08T17:28:45.192Z,11.50
2019-02-08T17:31:13.459Z,11.50
2019-02-08T17:33:41.508Z,11.60
2019-02-08T17:36:09.298Z,11.50
2019-02-08T17:38:37.488Z,11.50
2019-02-08T17:41:05.939Z,11.50
2019-02-08T17:43:34.013Z,11.50
2019-02-08T17:46:02.427Z,11.60
2019-02-08T17:48:30.261Z,11.50
2019-02-08T17:50:57.855Z,11.60
2019-02-08T17:53:25.541Z,11.60
2019-02-08T17:55:53.963Z,11.60
2019-02-08T17:58:22.150Z,11.60
2019-02-08T18:00:52.240Z,11.60
2019-02-08T18:03:20.128Z,11.60
2019-02-08T18:05:48.414Z,11.60
2019-02-08T18:08:16.920Z,11.60
2019-02-08T18:10:44.990Z,11.60
2019-02-08T18:13:13.569Z,11.60
2019-02-08T18:15:41.516Z,11.60
2019-02-08T18:18:13.093Z,11.60
2019-02-08T18:20:43.768Z,11.60
2019-02-08T18:23:12.360Z,11.60
2019-02-08T18:25:40.056Z,11.60
2019-02-08T18:28:11.023Z,11.60
2019-02-08T18:30:37.241Z,11.60
2019-02-08T18:33:04.774Z,11.60
2019-02-08T18:35:32.454Z,11.60
2019-02-08T18:38:00.039Z,11.60
2019-02-08T18:40:29.920Z,11.70
2019-02-08T18:42:57.859Z,11.60
2019-02-08T18:45:27.280Z,11.70
2019-02-08T18:47:55.339Z,11.70
2019-02-08T18:50:31.606Z,11.70
2019-02-08T18:52:59.704Z,11.70
2019-02-08T18:55:30.524Z,11.70
2019-02-08T18:57:58.101Z,11.70
2019-02-08T19:00:28.120Z,11.70
2019-02-08T19:02:57.565Z,11.70
2019-02-08T19:05:25.514Z,11.70
2019-02-08T19:07:53.226Z,11.70
2019-02-08T19:10:21.535Z,11.70
2019-02-08T19:12:49.540Z,11.60
2019-02-08T19:15:19.273Z,11.70
2019-02-08T19:17:47.588Z,11.70
2019-02-08T19:20:17.089Z,11.70
2019-02-08T19:22:44.953Z,11.70
2019-02-08T19:25:15.330Z,11.70
2019-02-08T19:27:43.243Z,11.70
2019-02-08T19:30:14.718Z,11.70
2019-02-08T19:32:42.867Z,11.70
2019-02-08T19:35:10.811Z,11.70
2019-02-08T19:37:38.530Z,11.70
2019-02-08T19:40:08.505Z,11.70
2019-02-08T19:42:36.491Z,11.70
2019-02-08T19:45:06.522Z,11.70
2019-02-08T19:47:34.631Z,11.70
2019-02-08T19:50:02.627Z,11.70
2019-02-08T19:52:30.317Z,11.80
2019-02-08T19:54:58.069Z,11.70
2019-02-08T19:57:25.822Z,11.70
2019-02-08T19:59:54.026Z,11.70
2019-02-08T20:02:21.852Z,11.70
2019-02-08T20:04:49.545Z,11.70
2019-02-08T20:07:17.044Z,11.70
2019-02-08T20:09:44.593Z,11.70
2019-02-08T20:12:12.318Z,11.70
2019-02-08T20:14:39.812Z,11.70
2019-02-08T20:17:07.684Z,11.70
2019-02-08T20:19:35.313Z,11.70
2019-02-08T20:22:03.642Z,11.70
2019-02-08T20:24:31.501Z,11.70
2019-02-08T20:26:59.331Z,11.70
2019-02-08T20:29:26.946Z,11.70
2019-02-08T20:31:54.736Z,11.70
2019-02-08T20:34:22.598Z,11.70
2019-02-08T20:36:50.914Z,11.40
2019-02-08T20:39:21.714Z,11.70
2019-02-08T20:41:49.599Z,11.70
2019-02-08T20:44:18.344Z,11.70
2019-02-08T20:46:46.239Z,11.70
2019-02-08T20:49:15.465Z,11.70
2019-02-08T20:51:43.498Z,11.70
2019-02-08T20:54:11.626Z,11.70
2019-02-08T20:56:39.443Z,11.70
2019-02-08T20:59:08.029Z,11.70
2019-02-08T21:01:35.636Z,11.70
2019-02-08T21:04:03.331Z,11.70
2019-02-08T21:06:31.480Z,11.70
2019-02-08T21:08:58.913Z,11.70
2019-02-08T21:11:26.597Z,11.70
2019-02-08T21:13:54.636Z,11.70
2019-02-08T21:16:22.760Z,11.70
2019-02-08T21:18:50.721Z,11.70
2019-02-08T21:21:18.331Z,11.70
2019-02-08T21:23:46.022Z,11.70
2019-02-08T21:26:13.561Z,11.70
2019-02-08T21:28:41.381Z,11.70
2019-02-08T21:31:09.061Z,11.70
2019-02-08T21:33:37.143Z,11.70
2019-02-08T21:36:04.586Z,11.70
2019-02-08T21:38:31.964Z,11.70
2019-02-08T21:41:00.138Z,11.70
2019-02-08T21:43:27.996Z,11.70
2019-02-08T21:45:55.943Z,11.70
2019-02-08T21:48:23.111Z,11.70
2019-02-08T21:50:50.862Z,11.70
2019-02-08T21:53:18.170Z,11.70
2019-02-08T21:55:45.877Z,11.70
2019-02-08T21:58:13.852Z,11.70
2019-02-08T22:00:43.017Z,11.60
2019-02-08T22:03:12.245Z,11.70
2019-02-08T22:05:51.380Z,11.60
2019-02-08T22:08:19.069Z,11.60
2019-02-08T22:10:47.084Z,11.60
2019-02-08T22:13:14.866Z,11.60
2019-02-08T22:15:42.518Z,11.60
2019-02-08T22:18:10.012Z,11.60
2019-02-08T22:20:38.378Z,11.60
2019-02-08T22:23:07.064Z,11.60
2019-02-08T22:25:34.797Z,11.60
2019-02-08T22:28:02.743Z,11.60
2019-02-08T22:30:30.662Z,11.60
2019-02-08T22:32:58.343Z,11.60
2019-02-08T22:35:26.618Z,11.60
2019-02-08T22:37:54.295Z,11.60
2019-02-08T22:40:21.824Z,11.60
2019-02-08T22:42:49.427Z,11.60
2019-02-08T22:45:19.701Z,11.60
2019-02-08T22:47:47.708Z,11.60
2019-02-08T22:50:17.895Z,11.60
2019-02-08T22:52:46.177Z,11.60
2019-02-08T22:55:15.683Z,11.50
2019-02-08T22:57:43.642Z,11.60
2019-02-08T23:00:49.888Z,11.60
2019-02-08T23:03:17.313Z,11.50
2019-02-08T23:05:45.989Z,11.50
2019-02-08T23:08:14.317Z,11.50
2019-02-08T23:10:42.315Z,11.50
2019-02-08T23:13:09.886Z,11.50
2019-02-08T23:15:38.125Z,11.50
2019-02-08T23:18:06.477Z,11.50
2019-02-08T23:20:34.145Z,11.50
2019-02-08T23:23:01.613Z,11.50
2019-02-08T23:25:29.709Z,11.50
2019-02-08T23:27:58.193Z,11.50
2019-02-08T23:30:26.338Z,11.50
2019-02-08T23:32:53.983Z,11.50
2019-02-08T23:35:22.191Z,11.20
2019-02-08T23:37:50.571Z,11.50
2019-02-08T23:40:18.616Z,11.50
2019-02-08T23:42:46.613Z,11.50
2019-02-08T23:45:14.480Z,11.50
2019-02-08T23:47:42.648Z,11.50
2019-02-08T23:50:10.830Z,11.50
2019-02-08T23:52:39.524Z,11.50
2019-02-08T23:55:08.929Z,11.50
2019-02-08T23:57:36.881Z,11.50
